createdAt,value
2023-04-15T00:00:32.494Z,93.48
2023-04-15T00:03:35.918Z,94.71
2023-04-15T00:06:40.054Z,95.57
2023-04-15T00:09:43.255Z,94.71
2023-04-15T00:12:46.027Z,93.97
2023-04-15T00:15:48.919Z,93.71
2023-04-15T00:18:52.122Z,93.75
2023-04-15T00:21:54.704Z,93.81
2023-04-15T00:24:57.569Z,93.05
2023-04-15T00:28:00.200Z,93.84
2023-04-15T00:31:03.076Z,94.83
2023-04-15T00:34:05.886Z,94.33
2023-04-15T00:37:10.404Z,94.76
2023-04-15T00:40:14.131Z,94.60
2023-04-15T00:43:19.826Z,94.39
2023-04-15T00:46:23.095Z,94.14
2023-04-15T00:49:26.198Z,93.76
2023-04-15T00:52:28.782Z,93.90
2023-04-15T00:55:31.772Z,94.00
2023-04-15T00:58:34.503Z,93.86
2023-04-15T01:01:37.692Z,93.18
2023-04-15T01:04:40.711Z,93.39
2023-04-15T01:07:43.813Z,93.49
2023-04-15T01:10:46.730Z,92.67
2023-04-15T01:13:49.414Z,93.34
2023-04-15T01:16:53.340Z,93.14
2023-04-15T01:19:59.130Z,93.58
2023-04-15T01:23:02.319Z,93.10
2023-04-15T01:26:06.502Z,92.40
2023-04-15T01:29:09.180Z,91.50
2023-04-15T01:32:12.328Z,90.57
2023-04-15T01:35:15.152Z,90.74
2023-04-15T01:38:18.448Z,91.50
2023-04-15T01:41:28.227Z,91.02
2023-04-15T01:44:31.025Z,91.42
2023-04-15T01:47:33.883Z,92.00
2023-04-15T01:50:38.441Z,91.01
2023-04-15T01:53:41.325Z,91.57
2023-04-15T01:56:44.710Z,91.72
2023-04-15T01:59:47.683Z,91.68
2023-04-15T02:02:51.605Z,91.69
2023-04-15T02:05:54.428Z,91.25
2023-04-15T02:08:57.170Z,92.80
2023-04-15T02:12:01.049Z,93.35
2023-04-15T02:15:05.620Z,95.73
2023-04-15T02:18:08.431Z,95.73
2023-04-15T02:21:12.000Z,95.07
2023-04-15T02:24:14.584Z,94.33
2023-04-15T02:27:18.582Z,95.98
2023-04-15T02:30:21.664Z,96.59
2023-04-15T02:33:25.097Z,94.95
2023-04-15T02:36:28.064Z,94.20
2023-04-15T02:39:30.637Z,94.02
2023-04-15T02:42:33.324Z,93.36
2023-04-15T02:45:37.920Z,92.17
2023-04-15T02:48:42.035Z,95.70
2023-04-15T02:51:49.696Z,94.00
2023-04-15T02:54:52.697Z,93.39
2023-04-15T02:57:56.622Z,93.33
2023-04-15T03:00:59.243Z,93.19
2023-04-15T03:04:02.349Z,92.57
2023-04-15T03:07:05.205Z,92.61
2023-04-15T03:10:09.105Z,94.18
2023-04-15T03:13:11.955Z,93.16
2023-04-15T03:16:16.686Z,94.30
2023-04-15T03:19:19.483Z,96.99
2023-04-15T03:22:22.290Z,97.85
2023-04-15T03:25:25.336Z,97.66
2023-04-15T03:28:29.884Z,96.08
2023-04-15T03:31:33.953Z,94.99
2023-04-15T03:34:37.727Z,96.52
2023-04-15T03:37:40.492Z,96.84
2023-04-15T03:40:43.716Z,95.82
2023-04-15T03:43:46.409Z,98.41
2023-04-15T03:46:49.311Z,97.26
2023-04-15T03:49:52.104Z,96.75
2023-04-15T03:52:54.690Z,96.18
2023-04-15T03:55:57.643Z,97.25
2023-04-15T03:59:00.495Z,97.14
2023-04-15T04:02:03.410Z,96.42
2023-04-15T04:05:06.314Z,98.99
2023-04-15T04:08:08.969Z,96.91
2023-04-15T04:11:11.698Z,96.54
2023-04-15T04:14:14.309Z,96.42
2023-04-15T04:17:16.986Z,95.77
2023-04-15T04:20:19.849Z,94.68
2023-04-15T04:23:22.469Z,94.26
2023-04-15T04:26:25.138Z,95.01
2023-04-15T04:29:27.828Z,94.89
2023-04-15T04:32:30.609Z,94.72
2023-04-15T04:35:35.285Z,94.49
2023-04-15T04:38:37.925Z,93.98
2023-04-15T04:41:40.797Z,93.38
2023-04-15T04:44:43.524Z,94.28
2023-04-15T04:47:47.201Z,93.91
2023-04-15T04:50:50.024Z,94.95
2023-04-15T04:53:52.810Z,94.70
2023-04-15T04:56:55.953Z,94.04
2023-04-15T04:59:58.570Z,93.84
2023-04-15T05:03:01.551Z,92.94
2023-04-15T05:06:06.839Z,92.88
2023-04-15T05:09:09.620Z,93.79
2023-04-15T05:12:15.592Z,93.39
2023-04-15T05:15:18.169Z,92.49
2023-04-15T05:18:21.299Z,93.88
2023-04-15T05:21:24.079Z,94.13
2023-04-15T05:24:26.909Z,93.08
2023-04-15T05:27:29.702Z,92.20
2023-04-15T05:30:32.446Z,92.73
2023-04-15T05:33:35.230Z,91.45
2023-04-15T05:36:38.338Z,91.78
2023-04-15T05:39:40.986Z,91.81
2023-04-15T05:42:44.170Z,91.81
2023-04-15T05:45:47.007Z,93.16
2023-04-15T05:48:49.984Z,93.40
2023-04-15T05:51:52.899Z,93.41
2023-04-15T05:54:55.640Z,93.98
2023-04-15T05:57:58.349Z,92.38
2023-04-15T06:01:01.480Z,92.89
2023-04-15T06:04:04.395Z,91.86
2023-04-15T06:07:07.565Z,92.44
2023-04-15T06:10:11.372Z,91.75
2023-04-15T06:13:14.185Z,91.96
2023-04-15T06:16:16.949Z,91.13
2023-04-15T06:19:19.932Z,92.44
2023-04-15T06:22:23.548Z,91.25
2023-04-15T06:25:26.545Z,91.99
2023-04-15T06:28:29.367Z,92.02
2023-04-15T06:31:32.194Z,91.25
2023-04-15T06:34:35.096Z,91.59
2023-04-15T06:37:37.789Z,91.83
2023-04-15T06:40:40.687Z,91.91
2023-04-15T06:43:43.680Z,92.20
2023-04-15T06:46:46.568Z,91.86
2023-04-15T06:49:49.345Z,92.20
2023-04-15T06:52:52.405Z,91.13
2023-04-15T06:55:55.330Z,90.47
2023-04-15T06:58:58.316Z,90.27
2023-04-15T07:02:01.807Z,89.87
2023-04-15T07:05:07.256Z,90.23
2023-04-15T07:08:10.245Z,89.63
2023-04-15T07:11:13.386Z,88.98
2023-04-15T07:14:16.304Z,87.38
2023-04-15T07:17:19.336Z,88.49
2023-04-15T07:20:22.162Z,89.69
2023-04-15T07:23:25.142Z,90.46
2023-04-15T07:26:28.150Z,89.98
2023-04-15T07:29:31.013Z,90.25
2023-04-15T07:32:33.926Z,89.87
2023-04-15T07:35:36.628Z,89.69
2023-04-15T07:38:40.715Z,88.50
2023-04-15T07:41:43.858Z,89.03
2023-04-15T07:44:46.917Z,88.73
2023-04-15T07:47:52.807Z,90.67
2023-04-15T07:50:55.653Z,89.93
2023-04-15T07:53:58.540Z,90.13
2023-04-15T07:57:01.874Z,90.92
2023-04-15T08:00:06.052Z,90.56
2023-04-15T08:03:15.912Z,90.59
2023-04-15T08:06:19.061Z,90.76
2023-04-15T08:09:21.945Z,91.17
2023-04-15T08:12:24.745Z,91.50
2023-04-15T08:15:28.785Z,91.17
2023-04-15T08:18:31.862Z,90.07
2023-04-15T08:21:35.006Z,89.25
2023-04-15T08:24:37.988Z,89.82
2023-04-15T08:27:42.398Z,88.97
2023-04-15T08:30:45.211Z,89.16
2023-04-15T08:33:48.281Z,87.79
2023-04-15T08:36:51.547Z,87.34
2023-04-15T08:39:54.311Z,86.46
2023-04-15T08:42:58.204Z,87.18
2023-04-15T08:46:02.102Z,86.92
2023-04-15T08:49:05.729Z,85.72
2023-04-15T08:52:09.791Z,85.53
2023-04-15T08:55:14.252Z,83.30
2023-04-15T08:58:17.369Z,83.21
2023-04-15T09:01:20.812Z,83.45
2023-04-15T09:04:23.739Z,84.70
2023-04-15T09:07:27.565Z,82.93
2023-04-15T09:10:31.381Z,83.64
2023-04-15T09:13:34.241Z,83.08
2023-04-15T09:16:57.149Z,82.24
2023-04-15T09:20:17.105Z,82.98
2023-04-15T09:23:20.164Z,82.78
2023-04-15T09:26:40.803Z,82.54
2023-04-15T09:29:43.458Z,84.22
2023-04-15T09:32:54.124Z,82.26
2023-04-15T09:36:06.821Z,82.41
2023-04-15T09:39:09.704Z,81.36
2023-04-15T09:42:12.496Z,80.97
2023-04-15T09:45:15.268Z,79.67
2023-04-15T09:48:23.131Z,78.77
2023-04-15T09:51:35.723Z,78.07
2023-04-15T09:54:39.259Z,77.61
2023-04-15T09:57:42.213Z,76.61
2023-04-15T10:00:45.280Z,78.29
2023-04-15T10:03:48.493Z,78.30
2023-04-15T10:06:51.753Z,78.06
2023-04-15T10:09:55.099Z,78.36
2023-04-15T10:12:58.046Z,79.74
2023-04-15T10:19:20.841Z,78.12
2023-04-15T10:22:24.155Z,78.82
2023-04-15T10:25:27.608Z,78.46
2023-04-15T10:28:30.401Z,77.53
2023-04-15T10:31:33.539Z,77.82
2023-04-15T10:34:36.458Z,76.58
2023-04-15T10:37:39.726Z,75.92
2023-04-15T10:40:42.757Z,75.98
2023-04-15T10:44:03.655Z,74.71
2023-04-15T10:47:15.032Z,74.55
2023-04-15T10:50:19.613Z,74.33
2023-04-15T10:53:32.488Z,71.65
2023-04-15T10:56:35.347Z,70.88
2023-04-15T10:59:59.747Z,71.26
2023-04-15T11:03:08.468Z,71.96
2023-04-15T11:06:11.651Z,71.52
2023-04-15T11:09:34.546Z,72.78
2023-04-15T11:12:38.069Z,72.73
2023-04-15T11:15:48.358Z,72.17
2023-04-15T11:18:57.318Z,70.74
2023-04-15T11:22:10.284Z,70.99
2023-04-15T11:25:26.298Z,71.52
2023-04-15T11:28:30.764Z,71.19
2023-04-15T11:31:33.860Z,70.23
2023-04-15T11:34:36.973Z,68.52
2023-04-15T11:37:39.889Z,69.01
2023-04-15T11:40:46.216Z,68.91
2023-04-15T11:43:50.982Z,70.74
2023-04-15T11:46:55.818Z,68.92
2023-04-15T11:49:58.541Z,69.00
2023-04-15T11:53:04.787Z,67.01
2023-04-15T11:56:11.965Z,68.95
2023-04-15T11:59:14.715Z,68.90
2023-04-15T12:02:17.831Z,70.42
2023-04-15T12:05:21.056Z,67.73
2023-04-15T12:08:24.026Z,67.46
2023-04-15T12:11:27.040Z,67.49
2023-04-15T12:14:33.783Z,67.14
2023-04-15T12:17:52.023Z,66.96
2023-04-15T12:20:55.048Z,67.43
2023-04-15T12:23:58.839Z,68.15
2023-04-15T12:27:05.988Z,67.51
2023-04-15T12:30:09.636Z,66.15
2023-04-15T12:33:12.511Z,67.25
2023-04-15T12:36:15.398Z,67.41
2023-04-15T12:39:18.331Z,69.08
2023-04-15T12:42:23.194Z,69.55
2023-04-15T12:45:27.880Z,70.14
2023-04-15T12:48:32.193Z,71.74
2023-04-15T12:51:37.970Z,69.90
2023-04-15T12:54:41.046Z,68.80
2023-04-15T12:57:45.982Z,67.94
2023-04-15T13:00:50.122Z,68.62
2023-04-15T13:03:53.236Z,68.74
2023-04-15T13:06:56.727Z,68.68
2023-04-15T13:09:59.706Z,69.33
2023-04-15T13:13:03.649Z,67.81
2023-04-15T13:16:06.979Z,68.95
2023-04-15T13:19:09.989Z,69.17
2023-04-15T13:22:13.058Z,69.46
2023-04-15T13:25:16.057Z,71.20
2023-04-15T13:28:18.867Z,75.17
2023-04-15T13:31:21.950Z,78.67
2023-04-15T13:34:24.813Z,80.47
2023-04-15T13:37:28.748Z,81.18
2023-04-15T13:40:32.058Z,81.33
2023-04-15T13:43:34.907Z,83.91
2023-04-15T13:46:39.930Z,83.62
2023-04-15T13:49:42.768Z,82.93
2023-04-15T13:52:45.737Z,83.29
2023-04-15T13:55:48.860Z,83.02
2023-04-15T13:58:53.303Z,82.41
2023-04-15T14:01:56.593Z,80.79
2023-04-15T14:04:59.448Z,78.89
2023-04-15T14:08:02.543Z,76.96
2023-04-15T14:11:05.592Z,75.44
2023-04-15T14:14:08.507Z,75.58
2023-04-15T14:17:11.536Z,74.79
2023-04-15T14:20:16.824Z,75.39
2023-04-15T14:23:20.359Z,75.97
2023-04-15T14:26:23.544Z,75.62
2023-04-15T14:29:26.748Z,75.68
2023-04-15T14:32:29.814Z,75.51
2023-04-15T14:35:33.296Z,75.71
2023-04-15T14:38:40.755Z,75.87
2023-04-15T14:41:43.875Z,76.14
2023-04-15T14:44:46.926Z,76.13
2023-04-15T14:47:49.768Z,76.13
2023-04-15T14:50:53.186Z,76.10
2023-04-15T14:53:56.050Z,77.01
2023-04-15T14:56:58.898Z,78.39
2023-04-15T15:00:02.126Z,78.43
2023-04-15T15:03:06.997Z,78.79
2023-04-15T15:06:09.788Z,79.60
2023-04-15T15:09:12.533Z,79.77
2023-04-15T15:12:15.447Z,78.91
2023-04-15T15:15:28.460Z,77.36
2023-04-15T15:18:31.839Z,77.30
2023-04-15T15:21:35.195Z,77.44
2023-04-15T15:24:37.855Z,76.08
2023-04-15T15:27:41.000Z,76.93
2023-04-15T15:30:43.751Z,77.77
2023-04-15T15:33:46.708Z,78.19
2023-04-15T15:36:49.517Z,78.65
2023-04-15T15:39:53.273Z,78.63
2023-04-15T15:42:56.065Z,77.89
2023-04-15T15:45:59.079Z,78.36
2023-04-15T15:49:04.103Z,79.06
2023-04-15T15:52:07.402Z,79.01
2023-04-15T15:55:10.770Z,79.51
2023-04-15T15:58:13.579Z,79.74
2023-04-15T16:01:16.815Z,80.44
2023-04-15T16:04:19.840Z,80.79
2023-04-15T16:07:22.858Z,80.88
2023-04-15T16:10:28.041Z,80.45
2023-04-15T16:13:31.110Z,81.17
2023-04-15T16:16:34.106Z,81.00
2023-04-15T16:19:36.962Z,81.21
2023-04-15T16:22:39.843Z,81.40
2023-04-15T16:25:44.280Z,80.56
2023-04-15T16:28:47.253Z,80.67
2023-04-15T16:31:50.212Z,79.66
2023-04-15T16:34:53.417Z,79.42
2023-04-15T16:37:56.215Z,78.79
2023-04-15T16:41:00.718Z,80.36
2023-04-15T16:44:03.707Z,82.73
2023-04-15T16:47:06.795Z,83.68
2023-04-15T16:50:14.364Z,85.85
2023-04-15T16:53:19.574Z,88.18
2023-04-15T16:56:22.476Z,88.93
2023-04-15T16:59:26.204Z,89.57
2023-04-15T17:02:30.105Z,89.36
2023-04-15T17:05:33.140Z,89.31
2023-04-15T17:08:35.884Z,89.57
2023-04-15T17:11:40.875Z,90.26
2023-04-15T17:14:43.568Z,89.96
2023-04-15T17:17:46.346Z,89.88
2023-04-15T17:20:49.409Z,89.90
2023-04-15T17:23:52.470Z,88.79
2023-04-15T17:26:55.447Z,88.21
2023-04-15T17:29:58.236Z,87.09
2023-04-15T17:33:01.834Z,87.44
2023-04-15T17:36:05.253Z,87.34
2023-04-15T17:39:08.322Z,86.27
2023-04-15T17:42:11.891Z,86.02
2023-04-15T17:45:15.610Z,86.28
2023-04-15T17:48:18.474Z,86.36
2023-04-15T17:51:22.135Z,86.39
2023-04-15T17:54:25.129Z,86.62
2023-04-15T17:57:28.025Z,86.79
2023-04-15T18:00:30.926Z,87.02
2023-04-15T18:03:33.796Z,86.88
2023-04-15T18:06:36.828Z,86.47
2023-04-15T18:09:39.960Z,86.81
2023-04-15T18:12:42.919Z,87.25
2023-04-15T18:15:47.395Z,86.92
2023-04-15T18:18:50.774Z,86.80
2023-04-15T18:21:53.817Z,86.96
2023-04-15T18:24:59.411Z,86.99
2023-04-15T18:28:02.617Z,89.65
2023-04-15T18:31:05.884Z,89.68
2023-04-15T18:34:09.208Z,88.36
2023-04-15T18:37:12.129Z,88.07
2023-04-15T18:40:16.487Z,87.05
2023-04-15T18:43:19.507Z,86.32
2023-04-15T18:46:22.621Z,87.06
2023-04-15T18:49:27.555Z,86.89
2023-04-15T18:52:30.975Z,86.60
2023-04-15T18:55:33.734Z,87.09
2023-04-15T18:59:09.412Z,87.66
2023-04-15T19:02:07.039Z,87.81
2023-04-15T19:05:10.204Z,88.17
2023-04-15T19:08:13.117Z,88.39
2023-04-15T19:11:16.258Z,87.92
2023-04-15T19:14:19.318Z,87.09
2023-04-15T19:17:22.697Z,86.89
2023-04-15T19:20:25.740Z,87.11
2023-04-15T19:23:28.609Z,86.82
2023-04-15T19:26:31.831Z,87.19
2023-04-15T19:29:34.651Z,87.58
2023-04-15T19:32:37.820Z,87.80
2023-04-15T19:35:41.366Z,87.94
2023-04-15T19:38:44.658Z,88.18
2023-04-15T19:41:47.784Z,88.52
2023-04-15T19:44:51.101Z,88.18
2023-04-15T19:47:54.504Z,88.32
2023-04-15T19:50:59.223Z,88.38
2023-04-15T19:54:02.465Z,87.40
2023-04-15T19:57:07.724Z,87.42
2023-04-15T20:00:11.377Z,87.46
2023-04-15T20:03:14.610Z,87.84
2023-04-15T20:06:17.621Z,88.20
2023-04-15T20:09:20.411Z,88.69
2023-04-15T20:12:51.038Z,89.87
2023-04-15T20:15:45.930Z,89.10
2023-04-15T20:18:49.080Z,89.54
2023-04-15T20:21:52.692Z,88.74
2023-04-15T20:24:56.249Z,88.45
2023-04-15T20:28:00.961Z,89.15
2023-04-15T20:31:04.495Z,89.85
2023-04-15T20:34:09.960Z,89.37
2023-04-15T20:37:14.182Z,88.35
2023-04-15T20:40:16.940Z,88.10
2023-04-15T20:43:21.948Z,88.01
2023-04-15T20:46:27.363Z,87.87
2023-04-15T20:49:36.568Z,88.06
2023-04-15T20:52:40.096Z,88.68
2023-04-15T20:55:46.332Z,89.21
2023-04-15T20:58:50.546Z,89.25
2023-04-15T21:01:53.950Z,89.59
2023-04-15T21:04:59.568Z,89.70
2023-04-15T21:08:02.574Z,89.22
2023-04-15T21:11:05.494Z,88.92
2023-04-15T21:14:08.963Z,88.68
2023-04-15T21:17:11.887Z,89.36
2023-04-15T21:20:14.824Z,90.02
2023-04-15T21:23:17.997Z,89.79
2023-04-15T21:26:20.861Z,89.85
2023-04-15T21:29:24.313Z,90.12
2023-04-15T21:32:27.177Z,90.20
2023-04-15T21:35:30.796Z,89.12
2023-04-15T21:38:34.835Z,89.23
2023-04-15T21:41:38.101Z,89.54
2023-04-15T21:44:41.047Z,89.29
2023-04-15T21:48:06.211Z,89.95
2023-04-15T21:51:06.819Z,89.43
2023-04-15T21:54:09.638Z,89.85
2023-04-15T21:57:12.359Z,89.65
2023-04-15T22:00:16.017Z,90.33
2023-04-15T22:03:19.042Z,90.62
2023-04-15T22:06:22.034Z,90.22
2023-04-15T22:09:24.790Z,90.08
2023-04-15T22:12:27.576Z,90.68
2023-04-15T22:15:32.644Z,91.33
2023-04-15T22:18:35.593Z,92.50
2023-04-15T22:21:38.555Z,92.46
2023-04-15T22:24:41.628Z,92.51
2023-04-15T22:27:44.290Z,92.62
2023-04-15T22:30:47.117Z,92.18
2023-04-15T22:33:49.845Z,92.30
2023-04-15T22:36:52.848Z,92.16
2023-04-15T22:39:55.832Z,92.96
2023-04-15T22:42:58.666Z,94.18
2023-04-15T22:46:01.779Z,96.09
2023-04-15T22:49:08.840Z,95.39
2023-04-15T22:52:17.213Z,94.78
2023-04-15T22:55:26.628Z,95.49
2023-04-15T22:58:32.433Z,94.91
2023-04-15T23:01:35.453Z,94.87
2023-04-15T23:04:38.398Z,95.47
2023-04-15T23:07:41.377Z,94.15
2023-04-15T23:10:44.954Z,93.29
2023-04-15T23:13:47.711Z,93.04
2023-04-15T23:16:50.631Z,92.79
2023-04-15T23:19:53.764Z,92.53
2023-04-15T23:22:56.359Z,92.81
2023-04-15T23:25:59.520Z,92.81
2023-04-15T23:29:02.359Z,92.51
2023-04-15T23:32:05.292Z,92.19
2023-04-15T23:35:08.455Z,91.92
2023-04-15T23:38:11.271Z,91.56
2023-04-15T23:41:14.271Z,93.03
2023-04-15T23:44:16.907Z,92.41
2023-04-15T23:47:19.725Z,91.88
2023-04-15T23:50:22.448Z,91.63
2023-04-15T23:53:26.470Z,91.84
2023-04-15T23:56:29.273Z,92.19
2023-04-15T23:59:32.053Z,92.05
